sensor_id;sensor_type;location;lat;lon;timestamp;temperature;humidity
11812;DHT22;5963;50.184;9.162;2023-02-07T00:00:53;1.00;99.90
11812;DHT22;5963;50.184;9.162;2023-02-07T00:03:23;1.00;99.90
11812;DHT22;5963;50.184;9.162;2023-02-07T00:05:51;1.00;99.90
11812;DHT22;5963;50.184;9.162;2023-02-07T00:08:21;1.00;99.90
11812;DHT22;5963;50.184;9.162;2023-02-07T00:10:52;1.00;99.90
11812;DHT22;5963;50.184;9.162;2023-02-07T00:13:22;1.00;99.90
11812;DHT22;5963;50.184;9.162;2023-02-07T00:15:52;1.00;99.90
11812;DHT22;5963;50.184;9.162;2023-02-07T00:18:22;1.00;99.90
11812;DHT22;5963;50.184;9.162;2023-02-07T00:20:57;1.20;99.90
11812;DHT22;5963;50.184;9.162;2023-02-07T00:23:27;1.20;99.90
11812;DHT22;5963;50.184;9.162;2023-02-07T00:25:58;1.10;99.90
11812;DHT22;5963;50.184;9.162;2023-02-07T00:28:29;1.00;99.90
11812;DHT22;5963;50.184;9.162;2023-02-07T00:31:07;1.00;99.90
11812;DHT22;5963;50.184;9.162;2023-02-07T00:33:38;1.00;99.90
11812;DHT22;5963;50.184;9.162;2023-02-07T00:36:12;1.00;99.90
11812;DHT22;5963;50.184;9.162;2023-02-07T00:38:42;1.00;99.90
11812;DHT22;5963;50.184;9.162;2023-02-07T00:41:14;1.00;99.90
11812;DHT22;5963;50.184;9.162;2023-02-07T00:43:47;1.00;99.90
11812;DHT22;5963;50.184;9.162;2023-02-07T00:46:16;1.00;99.90
11812;DHT22;5963;50.184;9.162;2023-02-07T00:48:46;1.00;99.90
11812;DHT22;5963;50.184;9.162;2023-02-07T00:51:16;0.90;99.90
11812;DHT22;5963;50.184;9.162;2023-02-07T00:53:46;0.80;99.90
11812;DHT22;5963;50.184;9.162;2023-02-07T00:56:17;0.70;99.90
11812;DHT22;5963;50.184;9.162;2023-02-07T00:58:47;0.70;99.90
11812;DHT22;5963;50.184;9.162;2023-02-07T01:01:18;0.80;99.90
11812;DHT22;5963;50.184;9.162;2023-02-07T01:03:48;0.80;99.90
11812;DHT22;5963;50.184;9.162;2023-02-07T01:06:18;0.80;99.90
11812;DHT22;5963;50.184;9.162;2023-02-07T01:08:48;0.80;99.90
11812;DHT22;5963;50.184;9.162;2023-02-07T01:11:20;0.80;99.90
11812;DHT22;5963;50.184;9.162;2023-02-07T01:13:50;0.90;99.90
11812;DHT22;5963;50.184;9.162;2023-02-07T01:16:21;0.90;99.90
11812;DHT22;5963;50.184;9.162;2023-02-07T01:18:51;0.90;99.90
11812;DHT22;5963;50.184;9.162;2023-02-07T01:21:24;1.00;99.90
11812;DHT22;5963;50.184;9.162;2023-02-07T01:23:54;1.00;99.90
11812;DHT22;5963;50.184;9.162;2023-02-07T01:26:26;1.00;99.90
11812;DHT22;5963;50.184;9.162;2023-02-07T01:28:56;0.90;99.90
11812;DHT22;5963;50.184;9.162;2023-02-07T01:31:26;0.90;99.90
11812;DHT22;5963;50.184;9.162;2023-02-07T01:33:57;0.80;99.90
11812;DHT22;5963;50.184;9.162;2023-02-07T01:36:28;0.70;99.90
11812;DHT22;5963;50.184;9.162;2023-02-07T01:38:58;0.60;99.90
11812;DHT22;5963;50.184;9.162;2023-02-07T01:41:29;0.60;99.90
11812;DHT22;5963;50.184;9.162;2023-02-07T01:44:03;0.60;99.90
11812;DHT22;5963;50.184;9.162;2023-02-07T01:46:34;0.50;99.90
11812;DHT22;5963;50.184;9.162;2023-02-07T01:49:07;0.50;99.90
11812;DHT22;5963;50.184;9.162;2023-02-07T01:51:38;0.40;99.90
11812;DHT22;5963;50.184;9.162;2023-02-07T01:54:12;0.40;99.90
11812;DHT22;5963;50.184;9.162;2023-02-07T01:56:47;0.30;99.90
11812;DHT22;5963;50.184;9.162;2023-02-07T01:59:19;0.30;99.90
11812;DHT22;5963;50.184;9.162;2023-02-07T02:01:49;0.30;99.90
11812;DHT22;5963;50.184;9.162;2023-02-07T02:04:19;0.20;99.90
11812;DHT22;5963;50.184;9.162;2023-02-07T02:06:49;0.20;99.90
11812;DHT22;5963;50.184;9.162;2023-02-07T02:09:19;0.10;99.90
11812;DHT22;5963;50.184;9.162;2023-02-07T02:12:10;0.10;99.90
11812;DHT22;5963;50.184;9.162;2023-02-07T02:14:53;0.10;99.90
11812;DHT22;5963;50.184;9.162;2023-02-07T02:17:32;0.10;99.90
11812;DHT22;5963;50.184;9.162;2023-02-07T02:20:26;0.10;99.90
11812;DHT22;5963;50.184;9.162;2023-02-07T02:23:13;0.10;99.90
11812;DHT22;5963;50.184;9.162;2023-02-07T02:29:17;0.00;99.90
11812;DHT22;5963;50.184;9.162;2023-02-07T02:32:13;0.00;99.90
11812;DHT22;5963;50.184;9.162;2023-02-07T02:34:53;0.00;99.90
11812;DHT22;5963;50.184;9.162;2023-02-07T02:37:33;-0.10;99.90
11812;DHT22;5963;50.184;9.162;2023-02-07T02:40:08;-0.20;99.90
11812;DHT22;5963;50.184;9.162;2023-02-07T02:42:43;-0.20;99.90
11812;DHT22;5963;50.184;9.162;2023-02-07T02:45:17;-0.30;99.90
11812;DHT22;5963;50.184;9.162;2023-02-07T02:47:50;-0.30;99.90
11812;DHT22;5963;50.184;9.162;2023-02-07T02:50:24;-0.30;99.90
11812;DHT22;5963;50.184;9.162;2023-02-07T02:52:55;-0.30;99.90
11812;DHT22;5963;50.184;9.162;2023-02-07T02:58:27;-0.50;99.90
11812;DHT22;5963;50.184;9.162;2023-02-07T03:01:08;-0.50;99.90
11812;DHT22;5963;50.184;9.162;2023-02-07T03:03:53;-0.50;99.90
11812;DHT22;5963;50.184;9.162;2023-02-07T03:06:35;-0.60;99.90
11812;DHT22;5963;50.184;9.162;2023-02-07T03:09:14;-0.70;99.90
11812;DHT22;5963;50.184;9.162;2023-02-07T03:11:53;-0.70;99.90
11812;DHT22;5963;50.184;9.162;2023-02-07T03:14:29;-0.70;99.90
11812;DHT22;5963;50.184;9.162;2023-02-07T03:17:05;-0.70;99.90
11812;DHT22;5963;50.184;9.162;2023-02-07T03:19:45;-0.70;99.90
11812;DHT22;5963;50.184;9.162;2023-02-07T03:22:20;-0.70;99.90
11812;DHT22;5963;50.184;9.162;2023-02-07T03:24:53;-0.80;99.90
11812;DHT22;5963;50.184;9.162;2023-02-07T03:27:26;-0.80;99.90
11812;DHT22;5963;50.184;9.162;2023-02-07T03:30:01;-0.70;99.90
11812;DHT22;5963;50.184;9.162;2023-02-07T03:32:35;-0.70;99.90
11812;DHT22;5963;50.184;9.162;2023-02-07T03:35:08;-0.70;99.90
11812;DHT22;5963;50.184;9.162;2023-02-07T03:37:43;-0.60;99.90
11812;DHT22;5963;50.184;9.162;2023-02-07T03:40:15;-0.60;99.90
11812;DHT22;5963;50.184;9.162;2023-02-07T03:42:48;-0.60;99.90
11812;DHT22;5963;50.184;9.162;2023-02-07T03:45:20;-0.70;99.90
11812;DHT22;5963;50.184;9.162;2023-02-07T03:47:50;-0.80;99.90
11812;DHT22;5963;50.184;9.162;2023-02-07T03:50:20;-0.80;99.90
11812;DHT22;5963;50.184;9.162;2023-02-07T03:52:51;-0.80;99.90
11812;DHT22;5963;50.184;9.162;2023-02-07T03:55:21;-0.80;99.90
11812;DHT22;5963;50.184;9.162;2023-02-07T03:57:51;-0.90;99.90
11812;DHT22;5963;50.184;9.162;2023-02-07T04:00:20;-0.90;99.90
11812;DHT22;5963;50.184;9.162;2023-02-07T04:02:50;-0.90;99.90
11812;DHT22;5963;50.184;9.162;2023-02-07T04:05:20;-1.00;99.90
11812;DHT22;5963;50.184;9.162;2023-02-07T04:07:51;-1.00;99.90
11812;DHT22;5963;50.184;9.162;2023-02-07T04:10:21;-1.10;99.90
11812;DHT22;5963;50.184;9.162;2023-02-07T04:12:51;-1.10;99.90
11812;DHT22;5963;50.184;9.162;2023-02-07T04:15:21;-1.10;99.90
11812;DHT22;5963;50.184;9.162;2023-02-07T04:17:51;-1.20;99.90
11812;DHT22;5963;50.184;9.162;2023-02-07T04:20:20;-1.20;99.90
11812;DHT22;5963;50.184;9.162;2023-02-07T04:22:51;-1.10;99.90
11812;DHT22;5963;50.184;9.162;2023-02-07T04:25:21;-1.10;99.90
11812;DHT22;5963;50.184;9.162;2023-02-07T04:27:51;-1.00;99.90
11812;DHT22;5963;50.184;9.162;2023-02-07T04:30:21;-1.10;99.90
11812;DHT22;5963;50.184;9.162;2023-02-07T04:32:51;-1.10;99.90
11812;DHT22;5963;50.184;9.162;2023-02-07T04:35:21;-1.20;99.90
11812;DHT22;5963;50.184;9.162;2023-02-07T04:37:52;-1.30;99.90
11812;DHT22;5963;50.184;9.162;2023-02-07T04:40:22;-1.40;99.90
11812;DHT22;5963;50.184;9.162;2023-02-07T04:42:52;-1.40;99.90
11812;DHT22;5963;50.184;9.162;2023-02-07T04:45:21;-1.40;99.90
11812;DHT22;5963;50.184;9.162;2023-02-07T04:47:51;-1.50;99.90
11812;DHT22;5963;50.184;9.162;2023-02-07T04:50:21;-1.50;99.90
11812;DHT22;5963;50.184;9.162;2023-02-07T04:52:52;-1.60;99.90
11812;DHT22;5963;50.184;9.162;2023-02-07T04:55:22;-1.70;99.90
11812;DHT22;5963;50.184;9.162;2023-02-07T04:57:52;-1.60;99.90
11812;DHT22;5963;50.184;9.162;2023-02-07T05:00:21;-1.70;99.90
11812;DHT22;5963;50.184;9.162;2023-02-07T05:02:51;-1.60;99.90
11812;DHT22;5963;50.184;9.162;2023-02-07T05:05:21;-1.50;99.90
11812;DHT22;5963;50.184;9.162;2023-02-07T05:07:52;-1.50;99.90
11812;DHT22;5963;50.184;9.162;2023-02-07T05:10:22;-1.60;99.90
11812;DHT22;5963;50.184;9.162;2023-02-07T05:12:52;-1.70;99.90
11812;DHT22;5963;50.184;9.162;2023-02-07T05:15:22;-1.70;99.90
11812;DHT22;5963;50.184;9.162;2023-02-07T05:17:52;-1.80;99.90
11812;DHT22;5963;50.184;9.162;2023-02-07T05:20:22;-1.90;99.90
11812;DHT22;5963;50.184;9.162;2023-02-07T05:22:51;-2.00;99.90
11812;DHT22;5963;50.184;9.162;2023-02-07T05:25:21;-2.00;99.90
11812;DHT22;5963;50.184;9.162;2023-02-07T05:27:51;-2.00;99.90
11812;DHT22;5963;50.184;9.162;2023-02-07T05:30:21;-2.00;99.90
11812;DHT22;5963;50.184;9.162;2023-02-07T05:32:51;-2.00;99.90
11812;DHT22;5963;50.184;9.162;2023-02-07T05:35:32;-2.10;99.90
11812;DHT22;5963;50.184;9.162;2023-02-07T05:38:05;-2.00;99.90
11812;DHT22;5963;50.184;9.162;2023-02-07T05:40:35;-2.10;99.90
11812;DHT22;5963;50.184;9.162;2023-02-07T05:43:05;-2.10;99.90
11812;DHT22;5963;50.184;9.162;2023-02-07T05:45:35;-2.00;99.90
11812;DHT22;5963;50.184;9.162;2023-02-07T05:48:06;-2.00;99.90
11812;DHT22;5963;50.184;9.162;2023-02-07T05:50:36;-2.00;99.90
11812;DHT22;5963;50.184;9.162;2023-02-07T05:53:08;-2.00;99.90
11812;DHT22;5963;50.184;9.162;2023-02-07T05:55:37;-2.00;99.90
11812;DHT22;5963;50.184;9.162;2023-02-07T05:58:08;-2.10;99.90
11812;DHT22;5963;50.184;9.162;2023-02-07T06:00:37;-2.10;99.90
11812;DHT22;5963;50.184;9.162;2023-02-07T06:03:08;-2.10;99.90
11812;DHT22;5963;50.184;9.162;2023-02-07T06:05:38;-2.20;99.90
11812;DHT22;5963;50.184;9.162;2023-02-07T06:08:09;-2.20;99.90
11812;DHT22;5963;50.184;9.162;2023-02-07T06:10:39;-2.10;99.90
11812;DHT22;5963;50.184;9.162;2023-02-07T06:13:09;-2.10;99.90
11812;DHT22;5963;50.184;9.162;2023-02-07T06:15:39;-2.10;99.90
11812;DHT22;5963;50.184;9.162;2023-02-07T06:18:09;-2.20;99.90
11812;DHT22;5963;50.184;9.162;2023-02-07T06:20:39;-2.30;99.90
11812;DHT22;5963;50.184;9.162;2023-02-07T06:23:10;-2.30;99.90
11812;DHT22;5963;50.184;9.162;2023-02-07T06:25:40;-2.40;99.90
11812;DHT22;5963;50.184;9.162;2023-02-07T06:28:10;-2.40;99.90
11812;DHT22;5963;50.184;9.162;2023-02-07T06:30:38;-2.40;99.90
11812;DHT22;5963;50.184;9.162;2023-02-07T06:33:08;-2.40;99.90
11812;DHT22;5963;50.184;9.162;2023-02-07T06:35:38;-2.40;99.90
11812;DHT22;5963;50.184;9.162;2023-02-07T06:38:16;-2.40;99.90
11812;DHT22;5963;50.184;9.162;2023-02-07T06:40:46;-2.40;99.90
11812;DHT22;5963;50.184;9.162;2023-02-07T06:43:16;-2.50;99.90
11812;DHT22;5963;50.184;9.162;2023-02-07T06:45:46;-2.50;99.90
11812;DHT22;5963;50.184;9.162;2023-02-07T06:48:16;-2.40;99.90
11812;DHT22;5963;50.184;9.162;2023-02-07T06:50:50;-2.50;99.90
11812;DHT22;5963;50.184;9.162;2023-02-07T06:53:21;-2.40;99.90
11812;DHT22;5963;50.184;9.162;2023-02-07T06:55:50;-2.40;99.90
11812;DHT22;5963;50.184;9.162;2023-02-07T06:58:20;-2.30;99.90
11812;DHT22;5963;50.184;9.162;2023-02-07T07:00:50;-2.40;99.90
11812;DHT22;5963;50.184;9.162;2023-02-07T07:03:20;-2.40;99.90
11812;DHT22;5963;50.184;9.162;2023-02-07T07:05:54;-2.40;99.90
11812;DHT22;5963;50.184;9.162;2023-02-07T07:08:26;-2.40;99.90
11812;DHT22;5963;50.184;9.162;2023-02-07T07:10:57;-2.50;99.90
11812;DHT22;5963;50.184;9.162;2023-02-07T07:13:26;-2.40;99.90
11812;DHT22;5963;50.184;9.162;2023-02-07T07:15:56;-2.30;99.90
11812;DHT22;5963;50.184;9.162;2023-02-07T07:18:26;-2.20;99.90
11812;DHT22;5963;50.184;9.162;2023-02-07T07:20:56;-2.30;99.90
11812;DHT22;5963;50.184;9.162;2023-02-07T07:23:27;-2.40;99.90
11812;DHT22;5963;50.184;9.162;2023-02-07T07:25:57;-2.40;99.90
11812;DHT22;5963;50.184;9.162;2023-02-07T07:28:27;-2.40;99.90
11812;DHT22;5963;50.184;9.162;2023-02-07T07:31:04;-2.40;99.90
11812;DHT22;5963;50.184;9.162;2023-02-07T07:33:35;-2.30;99.90
11812;DHT22;5963;50.184;9.162;2023-02-07T07:36:05;-2.20;99.90
11812;DHT22;5963;50.184;9.162;2023-02-07T07:38:38;-2.10;99.90
11812;DHT22;5963;50.184;9.162;2023-02-07T07:41:13;-2.10;99.90
11812;DHT22;5963;50.184;9.162;2023-02-07T07:43:43;-2.20;99.90
11812;DHT22;5963;50.184;9.162;2023-02-07T07:46:13;-2.10;99.90
11812;DHT22;5963;50.184;9.162;2023-02-07T07:48:42;-2.10;99.90
11812;DHT22;5963;50.184;9.162;2023-02-07T07:51:12;-2.00;99.90
11812;DHT22;5963;50.184;9.162;2023-02-07T07:53:43;-2.00;99.90
11812;DHT22;5963;50.184;9.162;2023-02-07T07:56:13;-1.90;99.90
11812;DHT22;5963;50.184;9.162;2023-02-07T07:58:43;-1.80;99.90
11812;DHT22;5963;50.184;9.162;2023-02-07T08:01:13;-1.80;99.90
11812;DHT22;5963;50.184;9.162;2023-02-07T08:03:43;-1.70;99.90
11812;DHT22;5963;50.184;9.162;2023-02-07T08:06:13;-1.60;99.90
11812;DHT22;5963;50.184;9.162;2023-02-07T08:08:44;-1.60;99.90
11812;DHT22;5963;50.184;9.162;2023-02-07T08:11:14;-1.40;99.90
11812;DHT22;5963;50.184;9.162;2023-02-07T08:13:44;-1.30;99.90
11812;DHT22;5963;50.184;9.162;2023-02-07T08:16:14;-1.30;99.90
11812;DHT22;5963;50.184;9.162;2023-02-07T08:18:44;-1.30;99.90
11812;DHT22;5963;50.184;9.162;2023-02-07T08:21:14;-1.20;99.90
11812;DHT22;5963;50.184;9.162;2023-02-07T08:23:45;-1.10;99.90
11812;DHT22;5963;50.184;9.162;2023-02-07T08:26:15;-1.10;99.90
11812;DHT22;5963;50.184;9.162;2023-02-07T08:28:45;-0.90;99.90
11812;DHT22;5963;50.184;9.162;2023-02-07T08:31:16;-0.80;99.90
11812;DHT22;5963;50.184;9.162;2023-02-07T08:33:46;-0.80;99.90
11812;DHT22;5963;50.184;9.162;2023-02-07T08:36:16;-0.70;99.90
11812;DHT22;5963;50.184;9.162;2023-02-07T08:38:48;-0.50;99.90
11812;DHT22;5963;50.184;9.162;2023-02-07T08:41:19;-0.50;99.90
11812;DHT22;5963;50.184;9.162;2023-02-07T08:43:48;-0.40;99.90
11812;DHT22;5963;50.184;9.162;2023-02-07T08:46:18;-0.20;99.90
11812;DHT22;5963;50.184;9.162;2023-02-07T08:48:48;-0.20;99.90
11812;DHT22;5963;50.184;9.162;2023-02-07T08:51:18;-0.10;99.90
11812;DHT22;5963;50.184;9.162;2023-02-07T08:53:50;-0.10;99.90
11812;DHT22;5963;50.184;9.162;2023-02-07T08:56:19;0.00;99.90
11812;DHT22;5963;50.184;9.162;2023-02-07T08:58:49;0.20;99.90
11812;DHT22;5963;50.184;9.162;2023-02-07T09:01:19;0.40;99.90
11812;DHT22;5963;50.184;9.162;2023-02-07T09:03:49;0.50;99.90
11812;DHT22;5963;50.184;9.162;2023-02-07T09:06:18;0.60;99.90
11812;DHT22;5963;50.184;9.162;2023-02-07T09:08:50;0.60;99.90
11812;DHT22;5963;50.184;9.162;2023-02-07T09:11:20;0.70;99.90
11812;DHT22;5963;50.184;9.162;2023-02-07T09:13:50;0.70;99.90
11812;DHT22;5963;50.184;9.162;2023-02-07T09:16:19;0.90;99.90
11812;DHT22;5963;50.184;9.162;2023-02-07T09:18:51;1.00;99.90
11812;DHT22;5963;50.184;9.162;2023-02-07T09:21:21;1.10;99.90
11812;DHT22;5963;50.184;9.162;2023-02-07T09:23:54;1.10;99.90
11812;DHT22;5963;50.184;9.162;2023-02-07T09:26:24;0.90;99.90
11812;DHT22;5963;50.184;9.162;2023-02-07T09:28:54;0.90;99.90
11812;DHT22;5963;50.184;9.162;2023-02-07T09:31:24;0.70;99.90
11812;DHT22;5963;50.184;9.162;2023-02-07T09:33:54;0.80;99.90
11812;DHT22;5963;50.184;9.162;2023-02-07T09:36:26;0.90;99.90
11812;DHT22;5963;50.184;9.162;2023-02-07T09:38:58;1.10;99.90
11812;DHT22;5963;50.184;9.162;2023-02-07T09:41:33;1.00;99.90
11812;DHT22;5963;50.184;9.162;2023-02-07T09:44:10;1.10;99.90
11812;DHT22;5963;50.184;9.162;2023-02-07T09:46:45;1.30;99.90
11812;DHT22;5963;50.184;9.162;2023-02-07T09:49:25;1.30;99.90
11812;DHT22;5963;50.184;9.162;2023-02-07T09:51:57;1.30;99.90
11812;DHT22;5963;50.184;9.162;2023-02-07T09:54:32;1.60;99.90
11812;DHT22;5963;50.184;9.162;2023-02-07T09:57:06;1.70;99.90
11812;DHT22;5963;50.184;9.162;2023-02-07T09:59:44;1.50;99.90
11812;DHT22;5963;50.184;9.162;2023-02-07T10:02:17;1.50;99.90
11812;DHT22;5963;50.184;9.162;2023-02-07T10:04:51;1.80;99.90
11812;DHT22;5963;50.184;9.162;2023-02-07T10:07:24;1.90;99.90
11812;DHT22;5963;50.184;9.162;2023-02-07T10:09:56;1.80;99.90
11812;DHT22;5963;50.184;9.162;2023-02-07T10:12:46;1.80;99.90
11812;DHT22;5963;50.184;9.162;2023-02-07T10:15:26;2.00;99.90
11812;DHT22;5963;50.184;9.162;2023-02-07T10:18:16;2.30;99.90
11812;DHT22;5963;50.184;9.162;2023-02-07T10:20:53;2.40;99.90
11812;DHT22;5963;50.184;9.162;2023-02-07T10:23:32;2.60;99.90
11812;DHT22;5963;50.184;9.162;2023-02-07T10:26:11;2.60;99.90
11812;DHT22;5963;50.184;9.162;2023-02-07T10:29:01;2.60;99.90
11812;DHT22;5963;50.184;9.162;2023-02-07T10:31:39;2.80;99.90
11812;DHT22;5963;50.184;9.162;2023-02-07T10:34:14;2.90;99.90
11812;DHT22;5963;50.184;9.162;2023-02-07T10:36:48;3.00;99.90
11812;DHT22;5963;50.184;9.162;2023-02-07T10:39:23;3.20;99.90
11812;DHT22;5963;50.184;9.162;2023-02-07T10:41:56;3.20;99.90
11812;DHT22;5963;50.184;9.162;2023-02-07T10:44:27;3.10;99.90
11812;DHT22;5963;50.184;9.162;2023-02-07T10:47:01;3.10;99.90
11812;DHT22;5963;50.184;9.162;2023-02-07T10:49:35;3.20;99.90
11812;DHT22;5963;50.184;9.162;2023-02-07T10:52:13;3.30;99.90
11812;DHT22;5963;50.184;9.162;2023-02-07T10:54:57;3.20;99.90
11812;DHT22;5963;50.184;9.162;2023-02-07T10:57:29;3.10;99.90
11812;DHT22;5963;50.184;9.162;2023-02-07T10:59:59;3.20;99.90
11812;DHT22;5963;50.184;9.162;2023-02-07T11:02:59;3.40;99.90
11812;DHT22;5963;50.184;9.162;2023-02-07T11:05:54;3.70;99.90
11812;DHT22;5963;50.184;9.162;2023-02-07T11:08:27;3.60;99.90
11812;DHT22;5963;50.184;9.162;2023-02-07T11:10:58;3.50;99.90
11812;DHT22;5963;50.184;9.162;2023-02-07T11:13:31;3.80;99.90
11812;DHT22;5963;50.184;9.162;2023-02-07T11:16:17;4.10;99.90
11812;DHT22;5963;50.184;9.162;2023-02-07T11:18:55;4.20;99.90
11812;DHT22;5963;50.184;9.162;2023-02-07T11:21:27;4.30;99.90
11812;DHT22;5963;50.184;9.162;2023-02-07T11:24:03;4.30;99.90
11812;DHT22;5963;50.184;9.162;2023-02-07T11:26:38;4.20;99.90
11812;DHT22;5963;50.184;9.162;2023-02-07T11:29:15;4.40;99.90
11812;DHT22;5963;50.184;9.162;2023-02-07T11:31:46;4.20;99.90
11812;DHT22;5963;50.184;9.162;2023-02-07T11:34:44;4.40;99.90
11812;DHT22;5963;50.184;9.162;2023-02-07T11:37:23;4.40;99.90
11812;DHT22;5963;50.184;9.162;2023-02-07T11:39:55;4.30;99.90
11812;DHT22;5963;50.184;9.162;2023-02-07T11:42:29;4.30;99.90
11812;DHT22;5963;50.184;9.162;2023-02-07T11:45:04;4.20;99.90
11812;DHT22;5963;50.184;9.162;2023-02-07T11:47:35;4.30;99.90
11812;DHT22;5963;50.184;9.162;2023-02-07T11:50:07;4.60;99.90
11812;DHT22;5963;50.184;9.162;2023-02-07T11:52:52;4.40;99.90
11812;DHT22;5963;50.184;9.162;2023-02-07T11:55:29;4.60;99.90
11812;DHT22;5963;50.184;9.162;2023-02-07T11:57:59;4.80;99.90
11812;DHT22;5963;50.184;9.162;2023-02-07T12:00:36;4.90;99.90
11812;DHT22;5963;50.184;9.162;2023-02-07T12:03:24;4.60;99.90
11812;DHT22;5963;50.184;9.162;2023-02-07T12:05:57;4.30;99.90
11812;DHT22;5963;50.184;9.162;2023-02-07T12:08:29;4.30;99.90
11812;DHT22;5963;50.184;9.162;2023-02-07T12:11:03;4.50;99.90
11812;DHT22;5963;50.184;9.162;2023-02-07T12:13:37;4.40;99.90
11812;DHT22;5963;50.184;9.162;2023-02-07T12:16:11;4.50;99.90
11812;DHT22;5963;50.184;9.162;2023-02-07T12:18:47;4.70;99.90
11812;DHT22;5963;50.184;9.162;2023-02-07T12:21:20;4.80;99.90
11812;DHT22;5963;50.184;9.162;2023-02-07T12:23:58;4.90;99.90
11812;DHT22;5963;50.184;9.162;2023-02-07T12:26:31;5.00;99.90
11812;DHT22;5963;50.184;9.162;2023-02-07T12:29:22;5.00;99.90
11812;DHT22;5963;50.184;9.162;2023-02-07T12:32:01;4.90;99.90
11812;DHT22;5963;50.184;9.162;2023-02-07T12:34:36;5.00;99.90
11812;DHT22;5963;50.184;9.162;2023-02-07T12:37:15;5.00;99.90
11812;DHT22;5963;50.184;9.162;2023-02-07T12:39:51;4.60;99.90
11812;DHT22;5963;50.184;9.162;2023-02-07T12:42:29;4.50;99.90
11812;DHT22;5963;50.184;9.162;2023-02-07T12:45:03;4.70;99.90
11812;DHT22;5963;50.184;9.162;2023-02-07T12:47:42;4.90;99.90
11812;DHT22;5963;50.184;9.162;2023-02-07T12:50:37;4.80;99.90
11812;DHT22;5963;50.184;9.162;2023-02-07T12:53:14;4.60;99.90
11812;DHT22;5963;50.184;9.162;2023-02-07T12:55:54;4.90;99.90
11812;DHT22;5963;50.184;9.162;2023-02-07T12:58:33;5.00;99.90
11812;DHT22;5963;50.184;9.162;2023-02-07T13:01:07;5.00;99.90
11812;DHT22;5963;50.184;9.162;2023-02-07T13:03:51;4.90;99.90
11812;DHT22;5963;50.184;9.162;2023-02-07T13:06:33;4.90;99.90
11812;DHT22;5963;50.184;9.162;2023-02-07T13:09:13;4.60;99.90
11812;DHT22;5963;50.184;9.162;2023-02-07T13:11:55;4.40;99.90
11812;DHT22;5963;50.184;9.162;2023-02-07T13:14:35;4.40;99.90
11812;DHT22;5963;50.184;9.162;2023-02-07T13:17:21;4.50;99.90
11812;DHT22;5963;50.184;9.162;2023-02-07T13:20:02;4.60;99.90
11812;DHT22;5963;50.184;9.162;2023-02-07T13:22:39;4.60;99.90
11812;DHT22;5963;50.184;9.162;2023-02-07T13:25:18;4.50;99.90
11812;DHT22;5963;50.184;9.162;2023-02-07T13:27:51;4.60;99.90
11812;DHT22;5963;50.184;9.162;2023-02-07T13:30:24;4.50;99.90
11812;DHT22;5963;50.184;9.162;2023-02-07T13:32:55;4.70;99.90
11812;DHT22;5963;50.184;9.162;2023-02-07T13:35:31;4.70;99.90
11812;DHT22;5963;50.184;9.162;2023-02-07T13:38:05;4.70;99.90
11812;DHT22;5963;50.184;9.162;2023-02-07T13:40:40;4.70;99.90
11812;DHT22;5963;50.184;9.162;2023-02-07T13:43:17;4.80;99.90
11812;DHT22;5963;50.184;9.162;2023-02-07T13:45:52;5.00;99.90
11812;DHT22;5963;50.184;9.162;2023-02-07T13:48:29;4.90;99.90
11812;DHT22;5963;50.184;9.162;2023-02-07T13:51:09;4.70;99.90
11812;DHT22;5963;50.184;9.162;2023-02-07T13:53:45;4.90;99.90
11812;DHT22;5963;50.184;9.162;2023-02-07T13:56:16;4.80;99.00
11812;DHT22;5963;50.184;9.162;2023-02-07T13:59:34;4.50;99.30
11812;DHT22;5963;50.184;9.162;2023-02-07T14:02:15;4.80;99.30
11812;DHT22;5963;50.184;9.162;2023-02-07T14:04:51;4.80;99.80
11812;DHT22;5963;50.184;9.162;2023-02-07T14:07:25;4.80;99.90
11812;DHT22;5963;50.184;9.162;2023-02-07T14:09:59;4.70;99.00
11812;DHT22;5963;50.184;9.162;2023-02-07T14:12:31;4.70;98.70
11812;DHT22;5963;50.184;9.162;2023-02-07T14:18:27;4.50;98.40
11812;DHT22;5963;50.184;9.162;2023-02-07T14:21:01;4.50;98.70
11812;DHT22;5963;50.184;9.162;2023-02-07T14:23:59;4.30;97.00
11812;DHT22;5963;50.184;9.162;2023-02-07T14:26:51;4.30;98.70
11812;DHT22;5963;50.184;9.162;2023-02-07T14:29:50;4.50;98.70
11812;DHT22;5963;50.184;9.162;2023-02-07T14:32:28;4.40;99.00
11812;DHT22;5963;50.184;9.162;2023-02-07T14:35:00;4.50;99.30
11812;DHT22;5963;50.184;9.162;2023-02-07T14:37:39;4.50;98.40
11812;DHT22;5963;50.184;9.162;2023-02-07T14:40:21;4.60;98.00
11812;DHT22;5963;50.184;9.162;2023-02-07T14:42:58;4.60;96.80
11812;DHT22;5963;50.184;9.162;2023-02-07T14:45:32;4.60;95.80
11812;DHT22;5963;50.184;9.162;2023-02-07T14:48:03;4.60;94.80
11812;DHT22;5963;50.184;9.162;2023-02-07T14:50:33;4.60;94.80
11812;DHT22;5963;50.184;9.162;2023-02-07T14:53:05;4.60;96.00
11812;DHT22;5963;50.184;9.162;2023-02-07T14:55:51;4.40;93.70
11812;DHT22;5963;50.184;9.162;2023-02-07T14:58:26;4.30;93.70
11812;DHT22;5963;50.184;9.162;2023-02-07T15:01:00;4.10;94.40
11812;DHT22;5963;50.184;9.162;2023-02-07T15:03:30;4.10;94.40
11812;DHT22;5963;50.184;9.162;2023-02-07T15:06:12;4.10;95.20
11812;DHT22;5963;50.184;9.162;2023-02-07T15:08:59;4.00;93.30
11812;DHT22;5963;50.184;9.162;2023-02-07T15:11:30;4.00;93.10
11812;DHT22;5963;50.184;9.162;2023-02-07T15:14:01;3.80;93.50
11812;DHT22;5963;50.184;9.162;2023-02-07T15:16:33;3.90;93.20
11812;DHT22;5963;50.184;9.162;2023-02-07T15:19:11;3.90;93.10
11812;DHT22;5963;50.184;9.162;2023-02-07T15:21:42;3.80;94.80
11812;DHT22;5963;50.184;9.162;2023-02-07T15:24:19;3.70;93.10
11812;DHT22;5963;50.184;9.162;2023-02-07T15:26:56;3.60;93.60
11812;DHT22;5963;50.184;9.162;2023-02-07T15:29:27;3.60;93.80
11812;DHT22;5963;50.184;9.162;2023-02-07T15:31:58;3.50;93.10
11812;DHT22;5963;50.184;9.162;2023-02-07T15:34:30;3.50;93.60
11812;DHT22;5963;50.184;9.162;2023-02-07T15:37:10;3.50;94.10
11812;DHT22;5963;50.184;9.162;2023-02-07T15:39:41;3.30;93.80
11812;DHT22;5963;50.184;9.162;2023-02-07T15:42:17;3.20;96.30
11812;DHT22;5963;50.184;9.162;2023-02-07T15:44:49;3.00;94.10
11812;DHT22;5963;50.184;9.162;2023-02-07T15:47:33;2.90;95.00
11812;DHT22;5963;50.184;9.162;2023-02-07T15:50:14;2.70;95.50
11812;DHT22;5963;50.184;9.162;2023-02-07T15:52:52;2.70;95.30
11812;DHT22;5963;50.184;9.162;2023-02-07T15:55:26;2.60;96.30
11812;DHT22;5963;50.184;9.162;2023-02-07T15:57:59;2.50;96.50
11812;DHT22;5963;50.184;9.162;2023-02-07T16:00:36;2.40;95.60
11812;DHT22;5963;50.184;9.162;2023-02-07T16:03:11;2.40;94.80
11812;DHT22;5963;50.184;9.162;2023-02-07T16:05:43;2.30;95.50
11812;DHT22;5963;50.184;9.162;2023-02-07T16:08:27;2.30;95.30
11812;DHT22;5963;50.184;9.162;2023-02-07T16:11:11;2.30;95.70
11812;DHT22;5963;50.184;9.162;2023-02-07T16:13:50;2.20;96.00
11812;DHT22;5963;50.184;9.162;2023-02-07T16:16:23;2.10;95.10
11812;DHT22;5963;50.184;9.162;2023-02-07T16:19:04;2.10;94.60
11812;DHT22;5963;50.184;9.162;2023-02-07T16:21:34;2.10;94.10
11812;DHT22;5963;50.184;9.162;2023-02-07T16:24:07;2.00;95.10
11812;DHT22;5963;50.184;9.162;2023-02-07T16:26:38;1.90;94.60
11812;DHT22;5963;50.184;9.162;2023-02-07T16:29:10;1.90;94.50
11812;DHT22;5963;50.184;9.162;2023-02-07T16:31:44;1.90;94.20
11812;DHT22;5963;50.184;9.162;2023-02-07T16:34:15;1.80;94.50
11812;DHT22;5963;50.184;9.162;2023-02-07T16:36:49;1.70;95.20
11812;DHT22;5963;50.184;9.162;2023-02-07T16:39:20;1.60;95.60
11812;DHT22;5963;50.184;9.162;2023-02-07T16:41:53;1.50;95.60
11812;DHT22;5963;50.184;9.162;2023-02-07T16:44:25;1.40;96.10
11812;DHT22;5963;50.184;9.162;2023-02-07T16:46:58;1.30;95.90